Roberts International Airport

Jump to: basic info | weather | frequencies | runways | comments

Related pages: nearby airports | nearby navaids | notams | map

Basic information (top)

Codes: ROB GLRB
Location: lon 6.233790, lat -10.362300, elev 31 ft / 9 m msl
Status: medium_airport
Scheduled airline service: yes
Links: Wikipedia Mobile

Weather (top)

Current conditions (rec'd 2014/10/01 20:00Z):

GLRB 012000Z 26008KT 9999 BKN015 FEW024CB 26/23 Q1013 RMK CB-NE

Airport forecast (rec'd 2014/10/01 18:24Z):

TAF GLRB 011600Z 0118/0224 22010KT 9999 BKN018 
      TEMPO 0120/0200 00000KT 9000 SCT015 
     FM020200 VRB03KT 8000 BKN012 
      TEMPO 0205/0209 04005KT 9000

Frequencies (top)

Verify before use: may be inaccurate or out of date.

A/G: 345.2 MHz (A/G VOICE RDO)
APP: 124.5 MHz (ROBERTS APP)
GND: 121.9 MHz (GND)
TWR: 118.3 MHz (ROBERTS TWR)

Runways (top)

04/22: 11,000 x 150 ft (3,353 x 46 m) — paved — lighted — threshold 22 displaced 1,200 ft (366 m)

Latest comments (top)

No comments yet for Roberts International Airport

More... (top)

See also NOTAMs and nearby airports and navaids, or visit the Roberts International Airport page at the main OurAirports website..